createdAt,value
2018-09-04T00:01:26.666Z,30.67
2018-09-04T00:03:55.990Z,31.77
2018-09-04T00:06:25.313Z,32.90
2018-09-04T00:08:54.880Z,32.77
2018-09-04T00:11:24.205Z,32.27
2018-09-04T00:13:53.522Z,45.10
2018-09-04T00:16:22.971Z,40.50
2018-09-04T00:18:52.303Z,39.47
2018-09-04T00:21:21.606Z,41.77
2018-09-04T00:23:50.924Z,42.90
2018-09-04T00:26:20.236Z,43.50
2018-09-04T00:28:49.540Z,48.53
2018-09-04T00:31:18.899Z,45.77
2018-09-04T00:33:48.175Z,44.90
2018-09-04T00:36:17.572Z,43.33
2018-09-04T00:38:46.849Z,43.90
2018-09-04T00:41:16.128Z,47.20
2018-09-04T00:43:45.410Z,47.40
2018-09-04T00:46:14.729Z,49.87
2018-09-04T00:48:44.054Z,47.33
2018-09-04T00:51:13.454Z,51.07
2018-09-04T00:53:42.776Z,52.50
2018-09-04T00:56:12.078Z,50.03
2018-09-04T00:58:41.384Z,48.53
2018-09-04T01:01:10.748Z,56.67
2018-09-04T01:03:40.096Z,43.80
2018-09-04T01:06:09.428Z,49.80
2018-09-04T01:08:38.826Z,47.07
2018-09-04T01:11:08.271Z,46.93
2018-09-04T01:13:46.839Z,37.90
2018-09-04T01:16:17.102Z,36.10
2018-09-04T01:18:46.405Z,39.00
2018-09-04T01:21:15.716Z,36.97
2018-09-04T01:23:45.035Z,37.27
2018-09-04T01:26:14.516Z,36.93
2018-09-04T01:28:43.882Z,44.93
2018-09-04T01:31:13.290Z,41.13
2018-09-04T01:33:42.596Z,40.40
2018-09-04T01:36:11.951Z,42.43
2018-09-04T01:38:41.259Z,41.03
2018-09-04T01:41:10.580Z,40.23
2018-09-04T01:43:39.962Z,44.83
2018-09-04T01:46:09.269Z,46.03
2018-09-04T01:48:38.680Z,41.80
2018-09-04T01:51:07.981Z,41.57
2018-09-04T01:53:37.500Z,41.03
2018-09-04T01:56:06.818Z,39.50
2018-09-04T01:58:36.161Z,38.77
2018-09-04T02:01:05.585Z,42.47
2018-09-04T02:03:35.709Z,42.10
2018-09-04T02:06:05.056Z,41.07
2018-09-04T02:08:34.389Z,41.70
2018-09-04T02:11:03.716Z,40.43
2018-09-04T02:13:33.119Z,42.00
2018-09-04T02:16:02.507Z,41.10
2018-09-04T02:18:31.932Z,40.90
2018-09-04T02:21:01.263Z,41.43
2018-09-04T02:23:30.571Z,40.27
2018-09-04T02:25:59.902Z,41.50
2018-09-04T02:28:29.355Z,42.83
2018-09-04T02:30:58.673Z,41.90
2018-09-04T02:33:27.986Z,43.97
2018-09-04T02:35:57.348Z,47.87
2018-09-04T02:38:26.727Z,48.37
2018-09-04T02:40:56.061Z,46.40
2018-09-04T02:43:25.362Z,45.60
2018-09-04T02:45:54.680Z,44.03
2018-09-04T02:48:24.019Z,42.27
2018-09-04T02:50:53.384Z,45.37
2018-09-04T02:53:22.802Z,44.90
2018-09-04T02:55:52.128Z,46.30
2018-09-04T02:58:21.514Z,45.33
2018-09-04T03:00:50.792Z,53.07
2018-09-04T03:03:20.109Z,48.37
2018-09-04T03:05:49.437Z,50.30
2018-09-04T03:08:18.777Z,47.10
2018-09-04T03:10:48.088Z,51.60
2018-09-04T03:13:17.537Z,49.50
2018-09-04T03:15:46.842Z,53.37
2018-09-04T03:18:16.168Z,50.57
2018-09-04T03:20:45.580Z,39.93
2018-09-04T03:23:14.911Z,35.90
2018-09-04T03:25:44.296Z,35.50
2018-09-04T03:28:13.694Z,37.37
2018-09-04T03:30:43.182Z,37.00
2018-09-04T03:33:12.611Z,37.37
2018-09-04T03:35:41.930Z,48.80
2018-09-04T03:38:11.296Z,45.90
2018-09-04T03:40:40.690Z,40.33
2018-09-04T03:43:10.018Z,43.60
2018-09-04T03:45:39.455Z,44.50
2018-09-04T03:48:09.376Z,46.53
2018-09-04T03:50:39.704Z,44.90
2018-09-04T03:53:09.049Z,45.57
2018-09-04T03:55:38.468Z,44.50
2018-09-04T03:58:07.779Z,44.43
2018-09-04T04:00:37.151Z,44.37
2018-09-04T04:03:06.571Z,47.40
2018-09-04T04:05:36.161Z,47.87
2018-09-04T04:08:05.684Z,46.37
2018-09-04T04:10:35.081Z,48.37
2018-09-04T04:13:04.763Z,52.37
2018-09-04T04:15:34.552Z,48.20
2018-09-04T04:18:04.022Z,49.50
2018-09-04T04:20:33.380Z,49.10
2018-09-04T04:23:03.073Z,45.60
2018-09-04T04:25:32.572Z,45.67
2018-09-04T04:28:01.833Z,47.43
2018-09-04T04:30:31.153Z,45.00
2018-09-04T04:33:00.597Z,48.90
2018-09-04T04:35:29.922Z,51.10
2018-09-04T04:37:59.281Z,46.77
2018-09-04T04:40:28.797Z,46.47
2018-09-04T04:42:58.105Z,49.97
2018-09-04T04:45:27.545Z,47.13
2018-09-04T04:47:56.883Z,48.50
2018-09-04T04:50:26.093Z,48.07
2018-09-04T04:52:55.381Z,47.00
2018-09-04T04:55:24.654Z,49.63
2018-09-04T04:57:53.938Z,52.17
2018-09-04T05:00:23.319Z,48.97
2018-09-04T05:02:52.735Z,53.60
2018-09-04T05:05:22.093Z,59.00
2018-09-04T05:07:51.490Z,55.60
2018-09-04T05:10:20.832Z,54.30
2018-09-04T05:12:50.224Z,49.80
2018-09-04T05:15:19.634Z,51.07
2018-09-04T05:17:48.942Z,51.30
2018-09-04T05:20:23.967Z,50.73
2018-09-04T05:22:53.500Z,58.00
2018-09-04T05:25:22.886Z,50.57
2018-09-04T05:27:52.474Z,55.03
2018-09-04T05:30:21.911Z,51.63
2018-09-04T05:32:56.476Z,52.30
2018-09-04T05:35:29.586Z,58.90
2018-09-04T05:37:59.118Z,51.37
2018-09-04T05:40:28.472Z,58.27
2018-09-04T05:43:00.832Z,55.97
2018-09-04T05:45:31.795Z,56.60
2018-09-04T05:48:03.841Z,55.90
2018-09-04T05:50:34.015Z,53.53
2018-09-04T05:53:03.337Z,59.90
2018-09-04T05:55:33.363Z,60.97
2018-09-04T05:58:03.027Z,56.43
2018-09-04T06:00:34.658Z,59.70
2018-09-04T06:03:04.216Z,60.80
2018-09-04T06:05:33.637Z,56.90
2018-09-04T06:08:02.955Z,52.80
2018-09-04T06:10:32.278Z,51.63
2018-09-04T06:13:01.708Z,51.70
2018-09-04T06:15:31.093Z,51.30
2018-09-04T06:18:00.548Z,43.70
2018-09-04T06:20:29.923Z,45.37
2018-09-04T06:22:59.319Z,48.70
2018-09-04T06:25:28.733Z,47.53
2018-09-04T06:27:58.073Z,51.53
2018-09-04T06:30:27.428Z,49.00
2018-09-04T06:32:56.751Z,49.00
2018-09-04T06:35:26.324Z,47.30
2018-09-04T06:37:55.841Z,53.73
2018-09-04T06:40:28.108Z,50.63
2018-09-04T06:42:57.626Z,55.30
2018-09-04T06:45:27.073Z,55.17
2018-09-04T06:47:56.479Z,57.70
2018-09-04T06:50:25.851Z,52.00
2018-09-04T06:52:55.347Z,58.73
2018-09-04T06:55:24.794Z,58.83
2018-09-04T06:57:54.887Z,54.63
2018-09-04T07:00:33.423Z,59.83
2018-09-04T07:03:05.599Z,54.53
2018-09-04T07:05:41.056Z,53.47
2018-09-04T07:08:17.664Z,53.47
2018-09-04T07:10:47.762Z,56.87
2018-09-04T07:13:22.450Z,56.17
2018-09-04T07:15:56.505Z,56.87
2018-09-04T07:18:27.604Z,56.80
2018-09-04T07:20:57.208Z,60.30
2018-09-04T07:23:36.662Z,63.30
2018-09-04T07:26:06.217Z,58.87
2018-09-04T07:28:35.920Z,56.97
2018-09-04T07:31:06.300Z,55.60
2018-09-04T07:33:35.689Z,54.87
2018-09-04T07:36:05.228Z,52.43
2018-09-04T07:38:34.718Z,47.83
2018-09-04T07:41:04.362Z,48.17
2018-09-04T07:43:33.919Z,43.53
2018-09-04T07:46:03.495Z,44.87
2018-09-04T07:48:32.925Z,43.90
2018-09-04T07:51:02.391Z,41.73
2018-09-04T07:53:31.854Z,40.53
2018-09-04T07:56:01.216Z,42.83
2018-09-04T07:58:30.846Z,44.03
2018-09-04T08:01:00.280Z,42.70
2018-09-04T08:03:29.569Z,48.40
2018-09-04T08:05:58.916Z,40.40
2018-09-04T08:08:28.335Z,38.93
2018-09-04T08:10:57.919Z,38.57
2018-09-04T08:13:27.274Z,37.37
2018-09-04T08:15:56.652Z,36.73
2018-09-04T08:18:26.044Z,35.63
2018-09-04T08:20:55.779Z,35.23
2018-09-04T08:23:24.950Z,36.10
2018-09-04T08:25:54.373Z,37.27
2018-09-04T08:28:23.782Z,37.67
2018-09-04T08:30:54.104Z,35.10
2018-09-04T08:33:23.714Z,39.90
2018-09-04T08:35:53.112Z,34.30
2018-09-04T08:38:22.162Z,34.37
2018-09-04T08:40:51.232Z,33.87
2018-09-04T08:43:20.309Z,35.23
2018-09-04T08:45:49.367Z,34.10
2018-09-04T08:48:19.748Z,37.73
2018-09-04T08:50:48.890Z,35.03
2018-09-04T08:53:18.339Z,35.67
2018-09-04T08:55:47.495Z,36.17
2018-09-04T08:58:16.562Z,36.90
2018-09-04T09:00:46.021Z,38.30
2018-09-04T09:03:15.510Z,37.33
2018-09-04T09:05:44.825Z,35.83
2018-09-04T09:08:14.175Z,36.60
2018-09-04T09:10:43.490Z,36.70
2018-09-04T09:13:12.855Z,36.93
2018-09-04T09:15:42.393Z,34.10
2018-09-04T09:18:14.348Z,36.23
2018-09-04T09:20:43.399Z,36.43
2018-09-04T09:23:12.692Z,37.50
2018-09-04T09:25:41.744Z,34.93
2018-09-04T09:28:10.800Z,33.43
2018-09-04T09:30:39.926Z,33.43
2018-09-04T09:33:08.967Z,32.40
2018-09-04T09:35:38.018Z,34.73
2018-09-04T09:38:07.042Z,32.67
2018-09-04T09:40:36.936Z,35.53
2018-09-04T09:43:06.349Z,33.87
2018-09-04T09:45:35.524Z,33.43
2018-09-04T09:48:04.892Z,27.90
2018-09-04T09:50:33.975Z,31.80
2018-09-04T09:53:03.192Z,31.70
2018-09-04T09:55:36.752Z,27.30
2018-09-04T09:58:10.151Z,25.80
2018-09-04T10:00:52.685Z,25.23
2018-09-04T10:03:27.045Z,27.97
2018-09-04T10:05:56.079Z,25.40
2018-09-04T10:08:25.388Z,23.70
2018-09-04T10:10:54.420Z,24.60
2018-09-04T10:13:23.646Z,25.70
2018-09-04T10:15:52.756Z,23.27
2018-09-04T10:18:21.827Z,26.13
2018-09-04T10:20:50.862Z,22.57
2018-09-04T10:23:20.243Z,21.40
2018-09-04T10:25:49.353Z,21.80
2018-09-04T10:28:18.689Z,20.97
2018-09-04T10:30:48.137Z,20.40
2018-09-04T10:33:17.515Z,22.90
2018-09-04T10:35:46.864Z,21.30
2018-09-04T10:38:17.054Z,20.00
2018-09-04T10:40:47.420Z,20.53
2018-09-04T10:43:17.101Z,21.70
2018-09-04T10:45:51.793Z,19.70
2018-09-04T10:48:26.547Z,19.87
2018-09-04T10:50:55.960Z,21.70
2018-09-04T10:53:25.416Z,20.93
2018-09-04T10:55:55.168Z,21.17
2018-09-04T10:58:24.507Z,20.70
2018-09-04T11:00:53.888Z,24.77
2018-09-04T11:03:23.464Z,20.63
2018-09-04T11:05:53.152Z,20.20
2018-09-04T11:08:22.540Z,20.40
2018-09-04T11:10:52.084Z,17.23
2018-09-04T11:13:21.477Z,17.90
2018-09-04T11:15:50.905Z,17.40
2018-09-04T11:18:20.244Z,17.60
2018-09-04T11:20:49.899Z,17.50
2018-09-04T11:23:19.388Z,17.00
2018-09-04T11:25:48.852Z,18.90
2018-09-04T11:28:20.126Z,17.10
2018-09-04T11:30:49.721Z,17.27
2018-09-04T11:33:19.249Z,18.60
2018-09-04T11:35:50.724Z,17.00
2018-09-04T11:38:21.272Z,17.40
2018-09-04T11:40:50.771Z,17.60
2018-09-04T11:43:20.203Z,17.27
2018-09-04T11:45:49.715Z,16.47
2018-09-04T11:48:19.614Z,16.10
2018-09-04T11:50:49.079Z,16.33
2018-09-04T11:53:18.501Z,17.50
2018-09-04T11:55:48.604Z,16.47
2018-09-04T11:58:17.926Z,17.30
2018-09-04T12:00:48.524Z,17.87
2018-09-04T12:03:17.969Z,18.10
2018-09-04T12:05:47.386Z,16.40
2018-09-04T12:08:16.759Z,16.10
2018-09-04T12:10:46.125Z,16.10
2018-09-04T12:13:21.202Z,17.50
2018-09-04T12:15:50.663Z,17.50
2018-09-04T12:18:20.270Z,15.33
2018-09-04T12:20:51.575Z,16.37
2018-09-04T12:23:21.169Z,18.67
2018-09-04T12:25:52.150Z,16.20
2018-09-04T12:28:21.640Z,16.13
2018-09-04T12:30:51.014Z,16.67
2018-09-04T12:33:21.031Z,16.10
2018-09-04T12:35:50.414Z,15.40
2018-09-04T12:38:23.096Z,15.30
2018-09-04T12:40:52.517Z,16.10
2018-09-04T12:43:22.674Z,14.13
2018-09-04T12:45:55.332Z,14.00
2018-09-04T12:48:28.159Z,14.80
2018-09-04T12:50:59.347Z,14.27
2018-09-04T12:53:30.349Z,13.93
2018-09-04T12:55:59.900Z,14.63
2018-09-04T12:58:30.265Z,12.93
2018-09-04T13:00:59.905Z,12.63
2018-09-04T13:03:29.841Z,13.67
2018-09-04T13:05:59.232Z,12.20
2018-09-04T13:08:33.985Z,14.37
2018-09-04T13:11:03.308Z,12.80
2018-09-04T13:13:32.812Z,13.27
2018-09-04T13:16:02.409Z,13.10
2018-09-04T13:18:31.819Z,11.70
2018-09-04T13:21:02.903Z,12.03
2018-09-04T13:23:33.786Z,13.83
2018-09-04T13:26:03.785Z,13.30
2018-09-04T13:28:35.041Z,11.40
2018-09-04T13:31:05.104Z,12.80
2018-09-04T13:33:35.994Z,13.23
2018-09-04T13:36:05.366Z,12.63
2018-09-04T13:38:34.882Z,16.17
2018-09-04T13:41:07.848Z,16.10
2018-09-04T13:43:38.655Z,14.17
2018-09-04T13:46:08.152Z,14.50
2018-09-04T13:48:37.529Z,19.10
2018-09-04T13:51:07.029Z,15.50
2018-09-04T13:53:36.448Z,15.77
2018-09-04T13:56:05.920Z,15.30
2018-09-04T13:58:40.908Z,14.27
2018-09-04T14:01:13.966Z,13.40
2018-09-04T14:03:44.511Z,13.90
2018-09-04T14:06:14.337Z,12.13
2018-09-04T14:08:44.097Z,13.37
2018-09-04T14:11:14.407Z,13.00
2018-09-04T14:13:43.794Z,11.27
2018-09-04T14:16:15.337Z,13.00
2018-09-04T14:18:45.288Z,13.40
2018-09-04T14:21:14.708Z,14.70
2018-09-04T14:23:44.058Z,14.03
2018-09-04T14:26:13.410Z,14.33
2018-09-04T14:28:42.722Z,15.10
2018-09-04T14:31:12.105Z,14.00
2018-09-04T14:33:41.473Z,14.90
2018-09-04T14:36:10.970Z,14.40
2018-09-04T14:38:40.655Z,14.53
2018-09-04T14:41:10.371Z,13.60
2018-09-04T14:43:39.729Z,13.50
2018-09-04T14:46:09.342Z,14.90
2018-09-04T14:48:38.916Z,13.33
2018-09-04T14:51:08.288Z,12.70
2018-09-04T14:54:07.966Z,15.17
2018-09-04T14:56:37.998Z,15.30
2018-09-04T14:59:08.568Z,14.10
2018-09-04T15:01:38.344Z,13.27
2018-09-04T15:04:07.761Z,14.20
2018-09-04T15:06:38.131Z,14.50
2018-09-04T15:09:07.735Z,13.97
2018-09-04T15:11:37.173Z,14.03
2018-09-04T15:14:06.643Z,14.30
2018-09-04T15:16:35.975Z,14.57
2018-09-04T15:19:05.421Z,13.43
2018-09-04T15:21:34.764Z,12.53
2018-09-04T15:24:04.477Z,12.63
2018-09-04T15:26:33.879Z,13.50
2018-09-04T15:29:03.577Z,12.90
2018-09-04T15:31:32.948Z,13.50
2018-09-04T15:34:02.241Z,13.27
2018-09-04T15:36:31.633Z,10.73
2018-09-04T15:39:01.374Z,11.50
2018-09-04T15:41:30.728Z,10.53
2018-09-04T15:44:00.040Z,9.00
2018-09-04T15:46:31.663Z,11.07
2018-09-04T15:49:06.404Z,15.37
2018-09-04T15:51:35.796Z,12.67
2018-09-04T15:54:05.113Z,11.03
2018-09-04T15:56:34.631Z,10.47
2018-09-04T15:59:05.033Z,9.57
2018-09-04T16:01:34.376Z,13.23
2018-09-04T16:04:03.824Z,14.00
2018-09-04T16:06:34.137Z,11.13
2018-09-04T16:09:05.177Z,15.33
2018-09-04T16:11:34.652Z,14.80
2018-09-04T16:14:04.103Z,11.77
2018-09-04T16:16:33.415Z,9.90
2018-09-04T16:19:02.770Z,11.20
2018-09-04T16:21:32.096Z,9.33
2018-09-04T16:24:01.434Z,10.73
2018-09-04T16:26:31.061Z,10.47
2018-09-04T16:29:00.711Z,9.77
2018-09-04T16:31:30.145Z,9.03
2018-09-04T16:33:59.648Z,10.70
2018-09-04T16:36:28.934Z,12.63
2018-09-04T16:38:58.258Z,13.70
2018-09-04T16:41:27.641Z,13.40
2018-09-04T16:43:56.938Z,15.67
2018-09-04T16:46:26.322Z,13.10
2018-09-04T16:48:55.764Z,13.90
2018-09-04T16:51:26.172Z,12.87
2018-09-04T16:53:55.790Z,12.27
2018-09-04T16:56:25.285Z,13.77
2018-09-04T16:58:54.737Z,12.17
2018-09-04T17:01:25.058Z,13.83
2018-09-04T17:03:54.516Z,13.97
2018-09-04T17:06:24.984Z,15.83
2018-09-04T17:08:54.449Z,13.80
2018-09-04T17:11:23.748Z,13.40
2018-09-04T17:13:53.162Z,13.90
2018-09-04T17:16:23.361Z,14.20
2018-09-04T17:18:53.310Z,13.63
2018-09-04T17:21:22.643Z,16.60
2018-09-04T17:23:52.120Z,18.10
2018-09-04T17:26:21.702Z,17.73
2018-09-04T17:28:51.018Z,16.73
2018-09-04T17:31:20.408Z,14.70
2018-09-04T17:33:50.019Z,16.07
2018-09-04T17:36:19.495Z,15.30
2018-09-04T17:38:48.997Z,14.23
2018-09-04T17:41:18.344Z,15.00
2018-09-04T17:43:47.678Z,14.87
2018-09-04T17:46:17.644Z,15.50
2018-09-04T17:48:47.059Z,15.43
2018-09-04T17:51:16.542Z,15.17
2018-09-04T17:53:45.817Z,16.97
2018-09-04T17:56:15.232Z,16.30
2018-09-04T17:58:44.676Z,15.63
2018-09-04T18:01:14.089Z,15.17
2018-09-04T18:03:43.785Z,15.43
2018-09-04T18:06:13.116Z,16.60
2018-09-04T18:08:42.531Z,17.67
2018-09-04T18:11:11.955Z,17.10
2018-09-04T18:13:41.300Z,17.40
2018-09-04T18:16:10.801Z,15.80
2018-09-04T18:18:40.143Z,18.00
2018-09-04T18:21:10.388Z,17.60
2018-09-04T18:23:39.967Z,16.00
2018-09-04T18:26:09.296Z,17.57
2018-09-04T18:28:38.830Z,17.90
2018-09-04T18:31:08.236Z,16.83
2018-09-04T18:33:37.647Z,16.80
2018-09-04T18:36:07.179Z,18.13
2018-09-04T18:38:36.744Z,16.63
2018-09-04T18:41:06.564Z,17.70
2018-09-04T18:43:35.956Z,17.87
2018-09-04T18:46:05.337Z,18.93
2018-09-04T18:48:34.934Z,17.33
2018-09-04T18:51:04.267Z,18.40
2018-09-04T18:53:33.618Z,17.87
2018-09-04T18:56:02.941Z,18.40
2018-09-04T18:58:32.281Z,17.80
2018-09-04T19:01:01.705Z,19.30
2018-09-04T19:03:31.035Z,18.23
2018-09-04T19:06:00.583Z,16.83
2018-09-04T19:08:29.903Z,16.70
2018-09-04T19:10:59.335Z,17.63
2018-09-04T19:13:28.854Z,18.90
2018-09-04T19:15:58.201Z,17.90
2018-09-04T19:18:27.600Z,18.67
2018-09-04T19:20:57.007Z,18.60
2018-09-04T19:23:26.410Z,19.33
2018-09-04T19:25:55.837Z,18.50
2018-09-04T19:28:25.172Z,18.60
2018-09-04T19:30:54.621Z,19.20
2018-09-04T19:33:23.996Z,19.80
2018-09-04T19:35:53.284Z,17.77
2018-09-04T19:38:22.589Z,17.47
2018-09-04T19:40:52.031Z,17.40
2018-09-04T19:43:21.369Z,17.30
2018-09-04T19:45:50.685Z,18.30
2018-09-04T19:48:19.996Z,16.87
2018-09-04T19:50:49.400Z,17.67
2018-09-04T19:53:18.886Z,19.73
2018-09-04T19:55:48.332Z,19.90
2018-09-04T19:58:17.646Z,21.03
2018-09-04T20:00:47.026Z,17.30
2018-09-04T20:03:16.350Z,18.93
2018-09-04T20:05:45.692Z,18.53
2018-09-04T20:08:15.060Z,18.10
2018-09-04T20:10:44.472Z,19.70
2018-09-04T20:13:13.977Z,20.47
2018-09-04T20:15:43.334Z,19.80
2018-09-04T20:18:12.666Z,20.90
2018-09-04T20:20:42.331Z,19.33
2018-09-04T20:23:11.677Z,18.90
2018-09-04T20:25:41.017Z,19.80
2018-09-04T20:28:10.848Z,19.57
2018-09-04T20:30:40.222Z,19.27
2018-09-04T20:33:09.525Z,17.37
2018-09-04T20:35:38.899Z,19.10
2018-09-04T20:38:08.427Z,18.47
2018-09-04T20:40:37.752Z,19.40
2018-09-04T20:43:07.168Z,19.80
2018-09-04T20:45:36.593Z,19.97
2018-09-04T20:48:06.112Z,20.20
2018-09-04T20:50:35.399Z,20.43
2018-09-04T20:53:05.302Z,22.07
2018-09-04T20:55:34.702Z,18.87
2018-09-04T20:58:15.459Z,19.43
2018-09-04T21:00:55.860Z,19.60
2018-09-04T21:03:36.731Z,21.90
2018-09-04T21:06:17.205Z,21.87
2018-09-04T21:08:56.310Z,20.93
2018-09-04T21:11:25.751Z,19.80
2018-09-04T21:13:55.304Z,20.30
2018-09-04T21:16:24.976Z,19.83
2018-09-04T21:18:54.471Z,21.30
2018-09-04T21:21:23.959Z,21.97
2018-09-04T21:23:53.255Z,20.20
2018-09-04T21:26:22.561Z,20.10
2018-09-04T21:28:52.075Z,19.20
2018-09-04T21:31:21.685Z,19.67
2018-09-04T21:33:50.975Z,18.70
2018-09-04T21:36:20.309Z,21.30
2018-09-04T21:38:49.673Z,19.33
2018-09-04T21:41:19.044Z,19.20
2018-09-04T21:43:48.408Z,18.03
2018-09-04T21:46:17.729Z,19.20
2018-09-04T21:48:47.076Z,17.47
2018-09-04T21:51:16.405Z,18.83
2018-09-04T21:53:46.112Z,18.40
2018-09-04T21:56:15.427Z,18.70
2018-09-04T21:58:45.544Z,17.60
2018-09-04T22:01:14.992Z,17.93
2018-09-04T22:03:44.293Z,15.60
2018-09-04T22:06:13.618Z,17.57
2018-09-04T22:08:44.174Z,17.13
2018-09-04T22:11:13.525Z,19.07
2018-09-04T22:13:43.239Z,18.70
2018-09-04T22:16:12.591Z,19.20
2018-09-04T22:18:41.977Z,19.40
2018-09-04T22:21:11.300Z,20.20
2018-09-04T22:23:40.732Z,17.73
2018-09-04T22:26:10.171Z,18.87
2018-09-04T22:28:39.504Z,19.23
2018-09-04T22:31:08.820Z,19.93
2018-09-04T22:33:38.144Z,20.67
2018-09-04T22:36:08.163Z,20.30
2018-09-04T22:38:37.487Z,19.73
2018-09-04T22:41:06.828Z,20.63
2018-09-04T22:43:36.296Z,18.20
2018-09-04T22:46:05.796Z,19.20
2018-09-04T22:48:35.123Z,19.63
2018-09-04T22:51:09.604Z,44.93
2018-09-04T22:53:39.335Z,20.90
2018-09-04T22:56:08.671Z,20.13
2018-09-04T22:58:38.113Z,20.00
2018-09-04T23:01:07.446Z,18.73
2018-09-04T23:03:36.843Z,19.13
2018-09-04T23:06:06.386Z,18.60
2018-09-04T23:08:35.691Z,18.83
2018-09-04T23:11:05.083Z,18.67
2018-09-04T23:13:34.413Z,19.50
2018-09-04T23:16:03.736Z,18.97
2018-09-04T23:18:33.059Z,18.47
2018-09-04T23:21:02.391Z,19.97
2018-09-04T23:23:31.756Z,19.17
2018-09-04T23:26:01.272Z,19.17
2018-09-04T23:28:30.859Z,19.43
2018-09-04T23:31:01.321Z,19.60
2018-09-04T23:33:32.138Z,19.83
2018-09-04T23:36:01.539Z,18.77
2018-09-04T23:38:30.883Z,20.03
2018-09-04T23:41:00.255Z,19.47
2018-09-04T23:43:29.573Z,18.70
2018-09-04T23:45:58.933Z,20.10
2018-09-04T23:48:28.318Z,19.23
2018-09-04T23:50:58.712Z,20.10
2018-09-04T23:53:28.278Z,19.67
2018-09-04T23:55:57.610Z,18.93
2018-09-04T23:58:26.996Z,19.37
